sensor_id;sensor_type;location;lat;lon;timestamp;temperature;humidity
74171;DHT22;62526;50.948;6.590;2023-09-12T00:00:23;24.30;92.90
74171;DHT22;62526;50.948;6.590;2023-09-12T00:02:50;24.30;92.90
74171;DHT22;62526;50.948;6.590;2023-09-12T00:05:17;24.30;92.90
74171;DHT22;62526;50.948;6.590;2023-09-12T00:07:44;24.40;92.90
74171;DHT22;62526;50.948;6.590;2023-09-12T00:10:11;26.30;93.60
74171;DHT22;62526;50.948;6.590;2023-09-12T00:12:37;24.50;92.90
74171;DHT22;62526;50.948;6.590;2023-09-12T00:15:05;24.50;92.70
74171;DHT22;62526;50.948;6.590;2023-09-12T00:17:32;24.40;92.80
74171;DHT22;62526;50.948;6.590;2023-09-12T00:19:59;24.30;93.10
74171;DHT22;62526;50.948;6.590;2023-09-12T00:22:26;24.40;93.40
74171;DHT22;62526;50.948;6.590;2023-09-12T00:24:53;24.40;93.10
74171;DHT22;62526;50.948;6.590;2023-09-12T00:27:20;24.50;93.10
74171;DHT22;62526;50.948;6.590;2023-09-12T00:29:46;24.40;93.10
74171;DHT22;62526;50.948;6.590;2023-09-12T00:32:13;24.10;93.60
74171;DHT22;62526;50.948;6.590;2023-09-12T00:34:40;23.60;94.40
74171;DHT22;62526;50.948;6.590;2023-09-12T00:37:07;23.60;94.80
74171;DHT22;62526;50.948;6.590;2023-09-12T00:39:34;23.60;94.80
74171;DHT22;62526;50.948;6.590;2023-09-12T00:42:02;23.70;95.00
74171;DHT22;62526;50.948;6.590;2023-09-12T00:44:29;23.80;94.70
74171;DHT22;62526;50.948;6.590;2023-09-12T00:46:55;23.80;94.80
74171;DHT22;62526;50.948;6.590;2023-09-12T00:49:22;23.80;94.80
74171;DHT22;62526;50.948;6.590;2023-09-12T00:51:51;23.80;94.70
74171;DHT22;62526;50.948;6.590;2023-09-12T00:54:18;23.90;94.70
74171;DHT22;62526;50.948;6.590;2023-09-12T00:56:45;23.90;94.40
74171;DHT22;62526;50.948;6.590;2023-09-12T00:59:12;23.80;94.30
74171;DHT22;62526;50.948;6.590;2023-09-12T01:01:38;23.50;95.10
74171;DHT22;62526;50.948;6.590;2023-09-12T01:04:05;23.00;95.70
74171;DHT22;62526;50.948;6.590;2023-09-12T01:06:32;23.00;96.20
74171;DHT22;62526;50.948;6.590;2023-09-12T01:08:59;23.00;96.20
74171;DHT22;62526;50.948;6.590;2023-09-12T01:11:26;23.10;96.20
74171;DHT22;62526;50.948;6.590;2023-09-12T01:13:53;23.20;96.40
74171;DHT22;62526;50.948;6.590;2023-09-12T01:16:19;23.20;96.40
74171;DHT22;62526;50.948;6.590;2023-09-12T01:18:46;23.10;96.50
74171;DHT22;62526;50.948;6.590;2023-09-12T01:21:26;23.10;96.60
74171;DHT22;62526;50.948;6.590;2023-09-12T01:26:29;23.00;97.00
74171;DHT22;62526;50.948;6.590;2023-09-12T01:28:50;23.10;97.10
74171;DHT22;62526;50.948;6.590;2023-09-12T01:31:17;23.20;97.00
74171;DHT22;62526;50.948;6.590;2023-09-12T01:33:43;23.30;97.00
74171;DHT22;62526;50.948;6.590;2023-09-12T01:36:10;23.40;96.80
74171;DHT22;62526;50.948;6.590;2023-09-12T01:38:37;23.60;96.50
74171;DHT22;62526;50.948;6.590;2023-09-12T01:41:04;23.70;96.40
74171;DHT22;62526;50.948;6.590;2023-09-12T01:43:31;23.70;96.20
74171;DHT22;62526;50.948;6.590;2023-09-12T01:45:58;23.90;96.10
74171;DHT22;62526;50.948;6.590;2023-09-12T01:48:26;23.90;95.80
74171;DHT22;62526;50.948;6.590;2023-09-12T01:50:52;23.90;95.80
74171;DHT22;62526;50.948;6.590;2023-09-12T01:53:19;23.80;95.80
74171;DHT22;62526;50.948;6.590;2023-09-12T01:55:45;23.70;96.00
74171;DHT22;62526;50.948;6.590;2023-09-12T01:58:13;23.50;96.30
74171;DHT22;62526;50.948;6.590;2023-09-12T02:00:40;23.00;97.20
74171;DHT22;62526;50.948;6.590;2023-09-12T02:03:07;23.00;97.60
74171;DHT22;62526;50.948;6.590;2023-09-12T02:05:34;23.20;97.70
74171;DHT22;62526;50.948;6.590;2023-09-12T02:08:01;23.20;97.60
74171;DHT22;62526;50.948;6.590;2023-09-12T02:10:28;23.30;97.40
74171;DHT22;62526;50.948;6.590;2023-09-12T02:12:55;23.30;97.60
74171;DHT22;62526;50.948;6.590;2023-09-12T02:15:22;23.40;97.40
74171;DHT22;62526;50.948;6.590;2023-09-12T02:17:48;23.40;97.40
74171;DHT22;62526;50.948;6.590;2023-09-12T02:20:16;23.40;97.50
74171;DHT22;62526;50.948;6.590;2023-09-12T02:22:43;23.50;97.50
74171;DHT22;62526;50.948;6.590;2023-09-12T02:25:10;23.60;97.20
74171;DHT22;62526;50.948;6.590;2023-09-12T02:27:37;23.70;97.00
74171;DHT22;62526;50.948;6.590;2023-09-12T02:30:05;23.80;96.90
74171;DHT22;62526;50.948;6.590;2023-09-12T02:32:32;23.80;96.80
74171;DHT22;62526;50.948;6.590;2023-09-12T02:34:59;23.80;96.80
74171;DHT22;62526;50.948;6.590;2023-09-12T02:37:26;23.80;96.90
74171;DHT22;62526;50.948;6.590;2023-09-12T02:39:52;23.80;96.70
74171;DHT22;62526;50.948;6.590;2023-09-12T02:42:19;23.70;96.70
74171;DHT22;62526;50.948;6.590;2023-09-12T02:44:46;23.60;96.70
74171;DHT22;62526;50.948;6.590;2023-09-12T02:47:13;23.60;96.90
74171;DHT22;62526;50.948;6.590;2023-09-12T02:49:40;23.50;97.10
74171;DHT22;62526;50.948;6.590;2023-09-12T02:52:07;23.40;97.50
74171;DHT22;62526;50.948;6.590;2023-09-12T02:54:34;23.40;97.60
74171;DHT22;62526;50.948;6.590;2023-09-12T02:57:01;23.40;97.70
74171;DHT22;62526;50.948;6.590;2023-09-12T02:59:29;23.30;97.70
74171;DHT22;62526;50.948;6.590;2023-09-12T03:01:55;23.20;98.00
74171;DHT22;62526;50.948;6.590;2023-09-12T03:04:24;23.20;98.40
74171;DHT22;62526;50.948;6.590;2023-09-12T03:06:49;23.20;98.60
74171;DHT22;62526;50.948;6.590;2023-09-12T03:09:16;23.40;98.40
74171;DHT22;62526;50.948;6.590;2023-09-12T03:11:43;23.40;98.20
74171;DHT22;62526;50.948;6.590;2023-09-12T03:14:10;23.50;98.20
74171;DHT22;62526;50.948;6.590;2023-09-12T03:16:36;23.50;98.20
74171;DHT22;62526;50.948;6.590;2023-09-12T03:19:04;23.50;97.90
74171;DHT22;62526;50.948;6.590;2023-09-12T03:21:30;23.40;98.20
74171;DHT22;62526;50.948;6.590;2023-09-12T03:23:58;23.20;98.60
74171;DHT22;62526;50.948;6.590;2023-09-12T03:26:24;23.20;98.80
74171;DHT22;62526;50.948;6.590;2023-09-12T03:28:51;23.10;99.20
74171;DHT22;62526;50.948;6.590;2023-09-12T03:31:18;23.00;99.20
74171;DHT22;62526;50.948;6.590;2023-09-12T03:33:44;23.00;99.50
74171;DHT22;62526;50.948;6.590;2023-09-12T03:36:12;23.00;99.50
74171;DHT22;62526;50.948;6.590;2023-09-12T03:38:39;23.20;99.60
74171;DHT22;62526;50.948;6.590;2023-09-12T03:41:05;23.20;99.40
74171;DHT22;62526;50.948;6.590;2023-09-12T03:43:33;23.20;99.50
74171;DHT22;62526;50.948;6.590;2023-09-12T03:45:59;23.30;99.60
74171;DHT22;62526;50.948;6.590;2023-09-12T03:48:26;23.30;99.60
74171;DHT22;62526;50.948;6.590;2023-09-12T03:50:52;24.00;99.80
74171;DHT22;62526;50.948;6.590;2023-09-12T03:53:20;23.50;99.30
74171;DHT22;62526;50.948;6.590;2023-09-12T03:55:46;23.50;99.20
74171;DHT22;62526;50.948;6.590;2023-09-12T03:58:13;23.60;99.10
74171;DHT22;62526;50.948;6.590;2023-09-12T04:00:39;23.60;99.00
74171;DHT22;62526;50.948;6.590;2023-09-12T04:03:07;23.60;99.00
74171;DHT22;62526;50.948;6.590;2023-09-12T04:05:34;23.60;99.00
74171;DHT22;62526;50.948;6.590;2023-09-12T04:08:01;23.70;98.90
74171;DHT22;62526;50.948;6.590;2023-09-12T04:10:27;23.80;98.90
74171;DHT22;62526;50.948;6.590;2023-09-12T04:12:54;23.80;98.80
74171;DHT22;62526;50.948;6.590;2023-09-12T04:15:21;23.90;98.70
74171;DHT22;62526;50.948;6.590;2023-09-12T04:17:47;23.90;98.80
74171;DHT22;62526;50.948;6.590;2023-09-12T04:20:15;23.90;98.90
74171;DHT22;62526;50.948;6.590;2023-09-12T04:22:43;23.80;99.00
74171;DHT22;62526;50.948;6.590;2023-09-12T04:25:09;23.70;99.50
74171;DHT22;62526;50.948;6.590;2023-09-12T04:27:37;23.70;99.40
74171;DHT22;62526;50.948;6.590;2023-09-12T04:30:05;23.80;99.80
74171;DHT22;62526;50.948;6.590;2023-09-12T04:32:33;23.80;99.90
74171;DHT22;62526;50.948;6.590;2023-09-12T04:35:00;23.90;99.90
74171;DHT22;62526;50.948;6.590;2023-09-12T04:37:27;23.80;99.80
74171;DHT22;62526;50.948;6.590;2023-09-12T04:39:54;23.80;99.80
74171;DHT22;62526;50.948;6.590;2023-09-12T04:42:21;23.70;99.80
74171;DHT22;62526;50.948;6.590;2023-09-12T04:44:48;23.50;99.90
74171;DHT22;62526;50.948;6.590;2023-09-12T04:47:15;23.40;99.90
74171;DHT22;62526;50.948;6.590;2023-09-12T04:49:43;23.50;99.90
74171;DHT22;62526;50.948;6.590;2023-09-12T04:52:08;23.50;99.90
74171;DHT22;62526;50.948;6.590;2023-09-12T04:54:36;23.50;99.90
74171;DHT22;62526;50.948;6.590;2023-09-12T04:57:03;23.60;99.90
74171;DHT22;62526;50.948;6.590;2023-09-12T04:59:31;23.70;99.90
74171;DHT22;62526;50.948;6.590;2023-09-12T05:01:57;23.70;99.90
74171;DHT22;62526;50.948;6.590;2023-09-12T05:04:24;23.30;99.90
74171;DHT22;62526;50.948;6.590;2023-09-12T05:06:52;22.90;99.90
74171;DHT22;62526;50.948;6.590;2023-09-12T05:09:19;22.90;99.90
74171;DHT22;62526;50.948;6.590;2023-09-12T05:11:45;22.80;99.90
74171;DHT22;62526;50.948;6.590;2023-09-12T05:14:12;22.80;99.90
74171;DHT22;62526;50.948;6.590;2023-09-12T05:16:39;22.90;99.90
74171;DHT22;62526;50.948;6.590;2023-09-12T05:19:06;22.90;99.90
74171;DHT22;62526;50.948;6.590;2023-09-12T05:21:33;23.10;99.90
74171;DHT22;62526;50.948;6.590;2023-09-12T05:24:00;23.20;99.90
74171;DHT22;62526;50.948;6.590;2023-09-12T05:26:27;23.40;99.90
74171;DHT22;62526;50.948;6.590;2023-09-12T05:28:54;23.50;99.90
74171;DHT22;62526;50.948;6.590;2023-09-12T05:31:21;23.60;99.90
74171;DHT22;62526;50.948;6.590;2023-09-12T05:33:48;23.60;99.90
74171;DHT22;62526;50.948;6.590;2023-09-12T05:36:15;23.60;99.90
74171;DHT22;62526;50.948;6.590;2023-09-12T05:38:41;23.60;99.90
74171;DHT22;62526;50.948;6.590;2023-09-12T05:41:09;23.50;99.90
74171;DHT22;62526;50.948;6.590;2023-09-12T05:43:35;23.50;99.90
74171;DHT22;62526;50.948;6.590;2023-09-12T05:46:03;23.60;99.90
74171;DHT22;62526;50.948;6.590;2023-09-12T05:48:29;23.40;99.90
74171;DHT22;62526;50.948;6.590;2023-09-12T05:51:09;23.50;99.90
74171;DHT22;62526;50.948;6.590;2023-09-12T05:53:35;23.30;99.90
74171;DHT22;62526;50.948;6.590;2023-09-12T05:56:02;23.30;99.90
74171;DHT22;62526;50.948;6.590;2023-09-12T05:58:28;23.20;99.90
74171;DHT22;62526;50.948;6.590;2023-09-12T06:00:55;23.20;99.90
74171;DHT22;62526;50.948;6.590;2023-09-12T06:03:22;23.30;99.90
74171;DHT22;62526;50.948;6.590;2023-09-12T06:05:49;23.30;99.90
74171;DHT22;62526;50.948;6.590;2023-09-12T06:08:16;23.40;99.90
74171;DHT22;62526;50.948;6.590;2023-09-12T06:10:43;23.40;99.90
74171;DHT22;62526;50.948;6.590;2023-09-12T06:13:09;23.30;99.90
74171;DHT22;62526;50.948;6.590;2023-09-12T06:15:37;23.40;99.90
74171;DHT22;62526;50.948;6.590;2023-09-12T06:18:04;23.50;99.90
74171;DHT22;62526;50.948;6.590;2023-09-12T06:20:30;23.60;99.90
74171;DHT22;62526;50.948;6.590;2023-09-12T06:22:57;23.80;99.90
74171;DHT22;62526;50.948;6.590;2023-09-12T06:25:24;23.90;99.90
74171;DHT22;62526;50.948;6.590;2023-09-12T06:27:51;24.00;99.90
74171;DHT22;62526;50.948;6.590;2023-09-12T06:30:18;24.10;99.90
74171;DHT22;62526;50.948;6.590;2023-09-12T06:32:45;24.20;99.90
74171;DHT22;62526;50.948;6.590;2023-09-12T06:35:12;24.30;99.90
74171;DHT22;62526;50.948;6.590;2023-09-12T06:37:39;24.40;99.90
74171;DHT22;62526;50.948;6.590;2023-09-12T06:40:06;24.50;99.90
74171;DHT22;62526;50.948;6.590;2023-09-12T06:42:34;24.50;99.90
74171;DHT22;62526;50.948;6.590;2023-09-12T06:45:01;24.60;99.90
74171;DHT22;62526;50.948;6.590;2023-09-12T06:47:28;24.60;99.90
74171;DHT22;62526;50.948;6.590;2023-09-12T06:49:55;24.70;99.90
74171;DHT22;62526;50.948;6.590;2023-09-12T06:52:22;24.80;99.90
74171;DHT22;62526;50.948;6.590;2023-09-12T06:54:49;24.80;99.90
74171;DHT22;62526;50.948;6.590;2023-09-12T06:57:16;24.80;99.90
74171;DHT22;62526;50.948;6.590;2023-09-12T06:59:42;24.80;99.90
74171;DHT22;62526;50.948;6.590;2023-09-12T07:02:09;24.80;99.90
74171;DHT22;62526;50.948;6.590;2023-09-12T07:04:36;24.80;99.90
74171;DHT22;62526;50.948;6.590;2023-09-12T07:07:03;24.90;99.90
74171;DHT22;62526;50.948;6.590;2023-09-12T07:09:29;25.00;99.90
74171;DHT22;62526;50.948;6.590;2023-09-12T07:11:56;25.00;99.90
74171;DHT22;62526;50.948;6.590;2023-09-12T07:14:23;25.00;99.90
74171;DHT22;62526;50.948;6.590;2023-09-12T07:16:49;25.00;99.90
74171;DHT22;62526;50.948;6.590;2023-09-12T07:19:16;25.10;99.90
74171;DHT22;62526;50.948;6.590;2023-09-12T07:21:42;25.20;99.90
74171;DHT22;62526;50.948;6.590;2023-09-12T07:24:09;25.20;99.90
74171;DHT22;62526;50.948;6.590;2023-09-12T07:26:36;25.20;99.90
74171;DHT22;62526;50.948;6.590;2023-09-12T07:29:03;25.20;99.90
74171;DHT22;62526;50.948;6.590;2023-09-12T07:31:30;25.20;99.90
74171;DHT22;62526;50.948;6.590;2023-09-12T07:33:56;25.40;99.90
74171;DHT22;62526;50.948;6.590;2023-09-12T07:36:23;25.50;99.90
74171;DHT22;62526;50.948;6.590;2023-09-12T07:38:50;25.50;99.90
74171;DHT22;62526;50.948;6.590;2023-09-12T07:41:16;25.60;99.90
74171;DHT22;62526;50.948;6.590;2023-09-12T07:43:43;25.60;99.90
74171;DHT22;62526;50.948;6.590;2023-09-12T07:46:09;25.70;99.90
74171;DHT22;62526;50.948;6.590;2023-09-12T07:48:36;25.70;99.90
74171;DHT22;62526;50.948;6.590;2023-09-12T07:51:11;25.70;99.90
74171;DHT22;62526;50.948;6.590;2023-09-12T07:53:29;25.70;99.70
74171;DHT22;62526;50.948;6.590;2023-09-12T07:55:58;25.70;99.30
74171;DHT22;62526;50.948;6.590;2023-09-12T07:58:22;25.70;99.10
74171;DHT22;62526;50.948;6.590;2023-09-12T08:00:49;25.80;99.00
74171;DHT22;62526;50.948;6.590;2023-09-12T08:03:17;25.80;98.70
74171;DHT22;62526;50.948;6.590;2023-09-12T08:05:42;25.80;98.60
74171;DHT22;62526;50.948;6.590;2023-09-12T08:08:09;25.80;98.80
74171;DHT22;62526;50.948;6.590;2023-09-12T08:10:35;25.80;98.80
74171;DHT22;62526;50.948;6.590;2023-09-12T08:13:03;25.90;99.20
74171;DHT22;62526;50.948;6.590;2023-09-12T08:15:29;25.90;99.00
74171;DHT22;62526;50.948;6.590;2023-09-12T08:17:56;26.00;99.20
74171;DHT22;62526;50.948;6.590;2023-09-12T08:20:22;25.90;99.70
74171;DHT22;62526;50.948;6.590;2023-09-12T08:22:49;25.80;99.60
74171;DHT22;62526;50.948;6.590;2023-09-12T08:25:16;25.80;99.60
74171;DHT22;62526;50.948;6.590;2023-09-12T08:27:43;25.90;99.30
74171;DHT22;62526;50.948;6.590;2023-09-12T08:30:11;26.00;98.90
74171;DHT22;62526;50.948;6.590;2023-09-12T08:32:38;25.80;98.60
74171;DHT22;62526;50.948;6.590;2023-09-12T08:35:05;25.50;99.10
74171;DHT22;62526;50.948;6.590;2023-09-12T08:37:32;25.20;99.70
74171;DHT22;62526;50.948;6.590;2023-09-12T08:39:59;25.30;99.90
74171;DHT22;62526;50.948;6.590;2023-09-12T08:42:26;25.60;99.40
74171;DHT22;62526;50.948;6.590;2023-09-12T08:44:52;25.80;99.40
74171;DHT22;62526;50.948;6.590;2023-09-12T08:47:19;25.70;99.60
74171;DHT22;62526;50.948;6.590;2023-09-12T08:49:45;25.80;99.60
74171;DHT22;62526;50.948;6.590;2023-09-12T08:52:13;25.70;99.70
74171;DHT22;62526;50.948;6.590;2023-09-12T08:54:39;25.80;98.80
74171;DHT22;62526;50.948;6.590;2023-09-12T08:57:06;26.00;98.20
74171;DHT22;62526;50.948;6.590;2023-09-12T08:59:33;26.10;97.20
74171;DHT22;62526;50.948;6.590;2023-09-12T09:02:00;26.20;97.60
74171;DHT22;62526;50.948;6.590;2023-09-12T09:04:28;26.30;98.00
74171;DHT22;62526;50.948;6.590;2023-09-12T09:06:53;26.60;97.60
74171;DHT22;62526;50.948;6.590;2023-09-12T09:09:20;27.10;97.10
74171;DHT22;62526;50.948;6.590;2023-09-12T09:11:46;27.10;97.30
74171;DHT22;62526;50.948;6.590;2023-09-12T09:14:13;27.00;95.90
74171;DHT22;62526;50.948;6.590;2023-09-12T09:16:40;27.00;96.10
74171;DHT22;62526;50.948;6.590;2023-09-12T09:19:06;26.70;96.10
74171;DHT22;62526;50.948;6.590;2023-09-12T09:21:34;26.70;96.00
74171;DHT22;62526;50.948;6.590;2023-09-12T09:24:01;26.80;95.90
74171;DHT22;62526;50.948;6.590;2023-09-12T09:29:07;27.20;95.80
74171;DHT22;62526;50.948;6.590;2023-09-12T09:31:33;27.30;96.10
74171;DHT22;62526;50.948;6.590;2023-09-12T09:33:59;27.70;95.50
74171;DHT22;62526;50.948;6.590;2023-09-12T09:36:26;27.70;95.70
74171;DHT22;62526;50.948;6.590;2023-09-12T09:38:53;27.90;94.00
74171;DHT22;62526;50.948;6.590;2023-09-12T09:41:20;27.90;94.30
74171;DHT22;62526;50.948;6.590;2023-09-12T09:43:49;28.00;93.10
74171;DHT22;62526;50.948;6.590;2023-09-12T09:46:15;27.90;93.10
74171;DHT22;62526;50.948;6.590;2023-09-12T09:48:48;27.90;93.40
74171;DHT22;62526;50.948;6.590;2023-09-12T09:51:19;27.90;93.60
74171;DHT22;62526;50.948;6.590;2023-09-12T09:53:45;27.90;93.80
74171;DHT22;62526;50.948;6.590;2023-09-12T09:56:13;28.00;94.20
74171;DHT22;62526;50.948;6.590;2023-09-12T09:58:57;28.00;94.60
74171;DHT22;62526;50.948;6.590;2023-09-12T10:01:27;28.20;94.30
74171;DHT22;62526;50.948;6.590;2023-09-12T10:03:58;28.20;93.40
74171;DHT22;62526;50.948;6.590;2023-09-12T10:06:20;28.40;93.30
74171;DHT22;62526;50.948;6.590;2023-09-12T10:08:51;28.50;93.00
74171;DHT22;62526;50.948;6.590;2023-09-12T10:11:18;28.60;93.20
74171;DHT22;62526;50.948;6.590;2023-09-12T10:13:46;28.90;92.70
74171;DHT22;62526;50.948;6.590;2023-09-12T10:16:12;29.00;92.80
74171;DHT22;62526;50.948;6.590;2023-09-12T10:18:41;28.90;93.00
74171;DHT22;62526;50.948;6.590;2023-09-12T10:21:07;29.10;92.70
74171;DHT22;62526;50.948;6.590;2023-09-12T10:23:35;29.10;91.80
74171;DHT22;62526;50.948;6.590;2023-09-12T10:26:01;29.00;91.70
74171;DHT22;62526;50.948;6.590;2023-09-12T10:28:27;29.00;91.20
74171;DHT22;62526;50.948;6.590;2023-09-12T10:30:54;29.00;91.50
74171;DHT22;62526;50.948;6.590;2023-09-12T10:33:20;29.10;91.30
74171;DHT22;62526;50.948;6.590;2023-09-12T10:35:47;29.40;90.30
74171;DHT22;62526;50.948;6.590;2023-09-12T10:38:14;29.60;90.50
74171;DHT22;62526;50.948;6.590;2023-09-12T10:40:40;29.60;90.80
74171;DHT22;62526;50.948;6.590;2023-09-12T10:43:07;30.00;88.30
74171;DHT22;62526;50.948;6.590;2023-09-12T10:45:33;30.00;88.60
74171;DHT22;62526;50.948;6.590;2023-09-12T10:48:00;33.10;90.70
74171;DHT22;62526;50.948;6.590;2023-09-12T10:50:27;30.40;85.60
74171;DHT22;62526;50.948;6.590;2023-09-12T10:52:54;30.50;85.00
74171;DHT22;62526;50.948;6.590;2023-09-12T10:55:20;30.40;86.30
74171;DHT22;62526;50.948;6.590;2023-09-12T11:00:25;30.30;85.30
74171;DHT22;62526;50.948;6.590;2023-09-12T11:02:52;30.20;88.10
74171;DHT22;62526;50.948;6.590;2023-09-12T11:05:35;30.10;86.90
74171;DHT22;62526;50.948;6.590;2023-09-12T11:08:03;29.90;86.90
74171;DHT22;62526;50.948;6.590;2023-09-12T11:10:30;29.90;87.10
74171;DHT22;62526;50.948;6.590;2023-09-12T11:12:57;30.10;86.00
74171;DHT22;62526;50.948;6.590;2023-09-12T11:15:25;30.30;85.80
74171;DHT22;62526;50.948;6.590;2023-09-12T11:18:08;30.30;86.30
74171;DHT22;62526;50.948;6.590;2023-09-12T11:20:50;30.30;84.10
74171;DHT22;62526;50.948;6.590;2023-09-12T11:23:18;30.20;84.70
74171;DHT22;62526;50.948;6.590;2023-09-12T11:25:44;30.20;85.10
74171;DHT22;62526;50.948;6.590;2023-09-12T11:28:11;30.30;84.60
74171;DHT22;62526;50.948;6.590;2023-09-12T11:30:38;30.40;83.30
74171;DHT22;62526;50.948;6.590;2023-09-12T11:33:05;30.70;83.30
74171;DHT22;62526;50.948;6.590;2023-09-12T11:35:35;31.00;82.70
74171;DHT22;62526;50.948;6.590;2023-09-12T11:37:59;31.00;83.30
74171;DHT22;62526;50.948;6.590;2023-09-12T11:40:41;31.00;83.20
74171;DHT22;62526;50.948;6.590;2023-09-12T11:42:52;30.90;82.40
74171;DHT22;62526;50.948;6.590;2023-09-12T11:45:19;30.90;83.00
74171;DHT22;62526;50.948;6.590;2023-09-12T11:47:46;31.00;81.60
74171;DHT22;62526;50.948;6.590;2023-09-12T11:50:35;31.00;82.60
74171;DHT22;62526;50.948;6.590;2023-09-12T11:53:03;31.00;80.90
74171;DHT22;62526;50.948;6.590;2023-09-12T11:55:36;31.30;80.70
74171;DHT22;62526;50.948;6.590;2023-09-12T11:58:01;31.40;81.30
74171;DHT22;62526;50.948;6.590;2023-09-12T12:00:27;31.90;79.40
74171;DHT22;62526;50.948;6.590;2023-09-12T12:02:54;32.00;78.40
74171;DHT22;62526;50.948;6.590;2023-09-12T12:05:21;32.00;79.00
74171;DHT22;62526;50.948;6.590;2023-09-12T12:07:48;32.00;79.70
74171;DHT22;62526;50.948;6.590;2023-09-12T12:10:14;32.10;77.30
74171;DHT22;62526;50.948;6.590;2023-09-12T12:12:42;32.10;77.70
74171;DHT22;62526;50.948;6.590;2023-09-12T12:15:11;32.10;78.10
74171;DHT22;62526;50.948;6.590;2023-09-12T12:17:37;32.20;77.20
74171;DHT22;62526;50.948;6.590;2023-09-12T12:20:05;32.30;77.80
74171;DHT22;62526;50.948;6.590;2023-09-12T12:22:32;32.50;77.40
74171;DHT22;62526;50.948;6.590;2023-09-12T12:25:04;32.50;76.30
74171;DHT22;62526;50.948;6.590;2023-09-12T12:27:27;32.50;76.60
74171;DHT22;62526;50.948;6.590;2023-09-12T12:29:52;32.40;74.60
74171;DHT22;62526;50.948;6.590;2023-09-12T12:32:19;32.40;75.30
74171;DHT22;62526;50.948;6.590;2023-09-12T12:34:47;32.20;76.30
74171;DHT22;62526;50.948;6.590;2023-09-12T12:37:13;31.90;77.30
74171;DHT22;62526;50.948;6.590;2023-09-12T12:39:43;31.90;77.80
74171;DHT22;62526;50.948;6.590;2023-09-12T12:42:10;32.60;75.40
74171;DHT22;62526;50.948;6.590;2023-09-12T12:44:36;32.60;75.70
74171;DHT22;62526;50.948;6.590;2023-09-12T12:47:04;32.90;76.00
74171;DHT22;62526;50.948;6.590;2023-09-12T12:49:35;33.20;73.60
74171;DHT22;62526;50.948;6.590;2023-09-12T12:51:58;33.20;72.70
74171;DHT22;62526;50.948;6.590;2023-09-12T12:54:24;33.40;72.10
74171;DHT22;62526;50.948;6.590;2023-09-12T12:56:51;33.70;69.50
74171;DHT22;62526;50.948;6.590;2023-09-12T12:59:18;33.80;69.70
74171;DHT22;62526;50.948;6.590;2023-09-12T13:01:45;33.90;69.50
74171;DHT22;62526;50.948;6.590;2023-09-12T13:04:11;33.90;70.00
74171;DHT22;62526;50.948;6.590;2023-09-12T13:06:39;34.50;68.70
74171;DHT22;62526;50.948;6.590;2023-09-12T13:09:05;34.70;66.70
74171;DHT22;62526;50.948;6.590;2023-09-12T13:11:32;34.80;65.90
74171;DHT22;62526;50.948;6.590;2023-09-12T13:14:02;35.20;65.70
74171;DHT22;62526;50.948;6.590;2023-09-12T13:16:28;35.40;64.40
74171;DHT22;62526;50.948;6.590;2023-09-12T13:18:55;35.40;65.10
74171;DHT22;62526;50.948;6.590;2023-09-12T13:21:21;35.20;65.60
74171;DHT22;62526;50.948;6.590;2023-09-12T13:23:48;34.70;66.10
74171;DHT22;62526;50.948;6.590;2023-09-12T13:26:15;34.90;65.80
74171;DHT22;62526;50.948;6.590;2023-09-12T13:28:41;35.40;64.50
74171;DHT22;62526;50.948;6.590;2023-09-12T13:31:08;35.90;64.00
74171;DHT22;62526;50.948;6.590;2023-09-12T13:33:35;36.30;62.50
74171;DHT22;62526;50.948;6.590;2023-09-12T13:36:02;36.20;63.00
74171;DHT22;62526;50.948;6.590;2023-09-12T13:38:28;36.60;62.40
74171;DHT22;62526;50.948;6.590;2023-09-12T13:40:55;36.80;61.00
74171;DHT22;62526;50.948;6.590;2023-09-12T13:43:22;36.70;60.20
74171;DHT22;62526;50.948;6.590;2023-09-12T13:45:49;36.70;60.80
74171;DHT22;62526;50.948;6.590;2023-09-12T13:48:16;36.80;61.80
74171;DHT22;62526;50.948;6.590;2023-09-12T13:50:42;36.90;59.10
74171;DHT22;62526;50.948;6.590;2023-09-12T13:53:09;36.90;59.50
74171;DHT22;62526;50.948;6.590;2023-09-12T13:55:36;36.70;58.90
74171;DHT22;62526;50.948;6.590;2023-09-12T13:58:03;36.70;59.50
74171;DHT22;62526;50.948;6.590;2023-09-12T14:00:30;37.00;60.00
74171;DHT22;62526;50.948;6.590;2023-09-12T14:02:56;36.70;60.70
74171;DHT22;62526;50.948;6.590;2023-09-12T14:05:23;36.50;59.20
74171;DHT22;62526;50.948;6.590;2023-09-12T14:07:50;36.20;59.50
74171;DHT22;62526;50.948;6.590;2023-09-12T14:10:17;36.00;61.10
74171;DHT22;62526;50.948;6.590;2023-09-12T14:12:44;36.00;61.90
74171;DHT22;62526;50.948;6.590;2023-09-12T14:15:11;36.00;60.30
74171;DHT22;62526;50.948;6.590;2023-09-12T14:17:37;36.50;60.80
74171;DHT22;62526;50.948;6.590;2023-09-12T14:20:04;36.50;61.40
74171;DHT22;62526;50.948;6.590;2023-09-12T14:22:31;36.50;59.30
74171;DHT22;62526;50.948;6.590;2023-09-12T14:24:57;36.30;58.60
74171;DHT22;62526;50.948;6.590;2023-09-12T14:27:24;36.00;58.90
74171;DHT22;62526;50.948;6.590;2023-09-12T14:29:50;35.40;59.60
74171;DHT22;62526;50.948;6.590;2023-09-12T14:32:18;35.40;60.20
74171;DHT22;62526;50.948;6.590;2023-09-12T14:34:44;35.60;60.20
74171;DHT22;62526;50.948;6.590;2023-09-12T14:37:11;35.40;60.20
74171;DHT22;62526;50.948;6.590;2023-09-12T14:39:38;34.50;60.50
74171;DHT22;62526;50.948;6.590;2023-09-12T14:42:05;33.80;62.30
74171;DHT22;62526;50.948;6.590;2023-09-12T14:44:31;33.30;63.40
74171;DHT22;62526;50.948;6.590;2023-09-12T14:46:58;32.70;64.90
74171;DHT22;62526;50.948;6.590;2023-09-12T14:49:25;32.30;66.50
74171;DHT22;62526;50.948;6.590;2023-09-12T14:51:52;32.00;67.50
74171;DHT22;62526;50.948;6.590;2023-09-12T14:54:18;31.90;68.00
74171;DHT22;62526;50.948;6.590;2023-09-12T14:56:45;31.80;69.30
74171;DHT22;62526;50.948;6.590;2023-09-12T14:59:11;31.80;70.30
74171;DHT22;62526;50.948;6.590;2023-09-12T15:01:38;31.80;69.90
74171;DHT22;62526;50.948;6.590;2023-09-12T15:04:05;31.80;70.00
74171;DHT22;62526;50.948;6.590;2023-09-12T15:06:31;31.90;70.10
74171;DHT22;62526;50.948;6.590;2023-09-12T15:08:58;31.80;69.90
74171;DHT22;62526;50.948;6.590;2023-09-12T15:11:25;31.80;69.90
74171;DHT22;62526;50.948;6.590;2023-09-12T15:13:51;31.90;69.30
74171;DHT22;62526;50.948;6.590;2023-09-12T15:16:18;32.60;68.70
74171;DHT22;62526;50.948;6.590;2023-09-12T15:18:45;32.70;69.80
74171;DHT22;62526;50.948;6.590;2023-09-12T15:21:11;34.30;64.90
74171;DHT22;62526;50.948;6.590;2023-09-12T15:23:38;34.30;65.50
74171;DHT22;62526;50.948;6.590;2023-09-12T15:26:04;35.10;64.00
74171;DHT22;62526;50.948;6.590;2023-09-12T15:28:31;35.70;61.40
74171;DHT22;62526;50.948;6.590;2023-09-12T15:30:57;36.10;60.00
74171;DHT22;62526;50.948;6.590;2023-09-12T15:33:24;36.60;58.30
74171;DHT22;62526;50.948;6.590;2023-09-12T15:35:51;36.90;58.00